sensor_id;sensor_type;location;lat;lon;timestamp;P1;durP1;ratioP1;P2;durP2;ratioP2
47403;SDS011;33157;51.508;4.288;2024-02-16T00:05:12;5.57;;;2.78;;
47403;SDS011;33157;51.508;4.288;2024-02-16T00:10:13;7.80;;;2.95;;
47403;SDS011;33157;51.508;4.288;2024-02-16T00:15:13;4.47;;;2.50;;
47403;SDS011;33157;51.508;4.288;2024-02-16T00:20:14;4.97;;;2.75;;
47403;SDS011;33157;51.508;4.288;2024-02-16T00:25:14;7.20;;;2.70;;
47403;SDS011;33157;51.508;4.288;2024-02-16T00:30:15;6.13;;;2.95;;
47403;SDS011;33157;51.508;4.288;2024-02-16T00:40:19;5.57;;;2.95;;
47403;SDS011;33157;51.508;4.288;2024-02-16T00:45:19;5.07;;;2.60;;
47403;SDS011;33157;51.508;4.288;2024-02-16T00:50:20;8.90;;;3.20;;
47403;SDS011;33157;51.508;4.288;2024-02-16T00:55:20;9.23;;;4.13;;
47403;SDS011;33157;51.508;4.288;2024-02-16T01:00:21;5.65;;;2.65;;
47403;SDS011;33157;51.508;4.288;2024-02-16T01:05:23;9.10;;;2.65;;
47403;SDS011;33157;51.508;4.288;2024-02-16T01:10:24;5.35;;;2.75;;
47403;SDS011;33157;51.508;4.288;2024-02-16T01:15:24;5.35;;;2.80;;
47403;SDS011;33157;51.508;4.288;2024-02-16T01:20:25;7.22;;;3.17;;
47403;SDS011;33157;51.508;4.288;2024-02-16T01:25:26;10.75;;;3.63;;
47403;SDS011;33157;51.508;4.288;2024-02-16T01:30:26;6.05;;;3.03;;
47403;SDS011;33157;51.508;4.288;2024-02-16T01:35:26;8.50;;;2.60;;
47403;SDS011;33157;51.508;4.288;2024-02-16T01:40:27;6.90;;;2.70;;
47403;SDS011;33157;51.508;4.288;2024-02-16T01:45:28;5.35;;;2.90;;
47403;SDS011;33157;51.508;4.288;2024-02-16T01:50:28;6.63;;;2.97;;
47403;SDS011;33157;51.508;4.288;2024-02-16T01:55:30;6.32;;;3.00;;
47403;SDS011;33157;51.508;4.288;2024-02-16T02:00:30;5.43;;;2.90;;
47403;SDS011;33157;51.508;4.288;2024-02-16T02:05:31;7.53;;;3.13;;
47403;SDS011;33157;51.508;4.288;2024-02-16T02:10:31;8.50;;;2.83;;
47403;SDS011;33157;51.508;4.288;2024-02-16T02:15:32;8.23;;;2.88;;
47403;SDS011;33157;51.508;4.288;2024-02-16T02:20:32;9.00;;;2.80;;
47403;SDS011;33157;51.508;4.288;2024-02-16T02:25:33;10.55;;;3.28;;
47403;SDS011;33157;51.508;4.288;2024-02-16T02:30:35;10.52;;;3.50;;
47403;SDS011;33157;51.508;4.288;2024-02-16T02:35:35;13.93;;;3.83;;
47403;SDS011;33157;51.508;4.288;2024-02-16T02:40:35;10.98;;;3.30;;
47403;SDS011;33157;51.508;4.288;2024-02-16T02:45:37;9.88;;;3.22;;
47403;SDS011;33157;51.508;4.288;2024-02-16T02:50:37;6.28;;;2.90;;
47403;SDS011;33157;51.508;4.288;2024-02-16T02:55:38;6.53;;;3.08;;
47403;SDS011;33157;51.508;4.288;2024-02-16T03:00:38;4.63;;;2.40;;
47403;SDS011;33157;51.508;4.288;2024-02-16T03:05:40;5.72;;;2.80;;
47403;SDS011;33157;51.508;4.288;2024-02-16T03:10:42;6.68;;;2.28;;
47403;SDS011;33157;51.508;4.288;2024-02-16T03:15:44;5.47;;;3.10;;
47403;SDS011;33157;51.508;4.288;2024-02-16T03:20:45;5.43;;;2.45;;
47403;SDS011;33157;51.508;4.288;2024-02-16T03:25:48;5.95;;;2.10;;
47403;SDS011;33157;51.508;4.288;2024-02-16T03:30:49;7.97;;;2.65;;
47403;SDS011;33157;51.508;4.288;2024-02-16T03:35:49;6.55;;;2.65;;
47403;SDS011;33157;51.508;4.288;2024-02-16T03:40:50;6.10;;;2.65;;
47403;SDS011;33157;51.508;4.288;2024-02-16T03:45:50;9.00;;;2.97;;
47403;SDS011;33157;51.508;4.288;2024-02-16T03:50:51;8.45;;;2.70;;
47403;SDS011;33157;51.508;4.288;2024-02-16T03:55:51;4.53;;;2.30;;
47403;SDS011;33157;51.508;4.288;2024-02-16T04:00:51;6.17;;;2.77;;
47403;SDS011;33157;51.508;4.288;2024-02-16T04:05:54;6.30;;;3.10;;
47403;SDS011;33157;51.508;4.288;2024-02-16T04:10:55;5.18;;;2.80;;
47403;SDS011;33157;51.508;4.288;2024-02-16T04:15:56;6.85;;;2.67;;
47403;SDS011;33157;51.508;4.288;2024-02-16T04:20:56;5.78;;;2.60;;
47403;SDS011;33157;51.508;4.288;2024-02-16T04:25:56;9.03;;;3.03;;
47403;SDS011;33157;51.508;4.288;2024-02-16T04:30:57;7.63;;;2.90;;
47403;SDS011;33157;51.508;4.288;2024-02-16T04:35:57;7.33;;;2.90;;
47403;SDS011;33157;51.508;4.288;2024-02-16T04:40:57;6.10;;;3.13;;
47403;SDS011;33157;51.508;4.288;2024-02-16T04:45:58;11.50;;;3.15;;
47403;SDS011;33157;51.508;4.288;2024-02-16T04:50:59;6.80;;;2.87;;
47403;SDS011;33157;51.508;4.288;2024-02-16T04:56:00;7.30;;;3.47;;
47403;SDS011;33157;51.508;4.288;2024-02-16T05:01:02;11.23;;;3.83;;
47403;SDS011;33157;51.508;4.288;2024-02-16T05:06:02;6.45;;;2.80;;
47403;SDS011;33157;51.508;4.288;2024-02-16T05:11:03;9.23;;;3.00;;
47403;SDS011;33157;51.508;4.288;2024-02-16T05:16:07;5.78;;;2.58;;
47403;SDS011;33157;51.508;4.288;2024-02-16T05:21:13;7.53;;;3.30;;
47403;SDS011;33157;51.508;4.288;2024-02-16T05:26:13;6.50;;;3.08;;
47403;SDS011;33157;51.508;4.288;2024-02-16T05:31:15;5.30;;;2.65;;
47403;SDS011;33157;51.508;4.288;2024-02-16T05:36:19;6.30;;;2.47;;
47403;SDS011;33157;51.508;4.288;2024-02-16T05:41:25;7.60;;;3.15;;
47403;SDS011;33157;51.508;4.288;2024-02-16T05:46:25;6.43;;;2.85;;
47403;SDS011;33157;51.508;4.288;2024-02-16T05:51:26;6.15;;;2.97;;
47403;SDS011;33157;51.508;4.288;2024-02-16T05:56:26;6.57;;;3.33;;
47403;SDS011;33157;51.508;4.288;2024-02-16T06:01:29;5.38;;;2.53;;
47403;SDS011;33157;51.508;4.288;2024-02-16T06:06:29;7.73;;;2.90;;
47403;SDS011;33157;51.508;4.288;2024-02-16T06:11:30;7.35;;;2.80;;
47403;SDS011;33157;51.508;4.288;2024-02-16T06:16:30;6.53;;;3.50;;
47403;SDS011;33157;51.508;4.288;2024-02-16T06:21:31;6.75;;;2.80;;
47403;SDS011;33157;51.508;4.288;2024-02-16T06:26:31;10.27;;;2.87;;
47403;SDS011;33157;51.508;4.288;2024-02-16T06:31:32;5.80;;;3.25;;
47403;SDS011;33157;51.508;4.288;2024-02-16T06:36:32;5.97;;;2.75;;
47403;SDS011;33157;51.508;4.288;2024-02-16T06:41:33;11.90;;;2.78;;
47403;SDS011;33157;51.508;4.288;2024-02-16T06:46:34;8.57;;;3.03;;
47403;SDS011;33157;51.508;4.288;2024-02-16T06:51:34;6.20;;;3.40;;
47403;SDS011;33157;51.508;4.288;2024-02-16T06:56:36;9.27;;;3.55;;
47403;SDS011;33157;51.508;4.288;2024-02-16T07:01:37;10.25;;;2.83;;
47403;SDS011;33157;51.508;4.288;2024-02-16T07:06:38;6.88;;;2.90;;
47403;SDS011;33157;51.508;4.288;2024-02-16T07:11:38;8.43;;;3.30;;
47403;SDS011;33157;51.508;4.288;2024-02-16T07:16:39;13.57;;;3.65;;
47403;SDS011;33157;51.508;4.288;2024-02-16T07:21:39;7.63;;;2.90;;
47403;SDS011;33157;51.508;4.288;2024-02-16T07:26:39;9.70;;;3.58;;
47403;SDS011;33157;51.508;4.288;2024-02-16T07:31:40;11.80;;;3.45;;
47403;SDS011;33157;51.508;4.288;2024-02-16T07:36:40;8.75;;;3.60;;
47403;SDS011;33157;51.508;4.288;2024-02-16T07:41:41;8.27;;;3.30;;
47403;SDS011;33157;51.508;4.288;2024-02-16T07:46:41;10.57;;;3.75;;
47403;SDS011;33157;51.508;4.288;2024-02-16T07:51:41;10.48;;;3.75;;
47403;SDS011;33157;51.508;4.288;2024-02-16T07:56:42;9.15;;;4.45;;
47403;SDS011;33157;51.508;4.288;2024-02-16T08:01:43;13.88;;;4.00;;
47403;SDS011;33157;51.508;4.288;2024-02-16T08:06:45;8.50;;;4.00;;
47403;SDS011;33157;51.508;4.288;2024-02-16T08:11:45;7.17;;;3.70;;
47403;SDS011;33157;51.508;4.288;2024-02-16T08:16:45;8.90;;;4.00;;
47403;SDS011;33157;51.508;4.288;2024-02-16T08:21:46;8.25;;;4.15;;
47403;SDS011;33157;51.508;4.288;2024-02-16T08:26:46;9.30;;;4.03;;
47403;SDS011;33157;51.508;4.288;2024-02-16T08:31:50;9.55;;;3.97;;
47403;SDS011;33157;51.508;4.288;2024-02-16T08:36:51;10.75;;;3.60;;
47403;SDS011;33157;51.508;4.288;2024-02-16T08:41:51;9.20;;;4.35;;
47403;SDS011;33157;51.508;4.288;2024-02-16T08:46:52;7.72;;;3.83;;
47403;SDS011;33157;51.508;4.288;2024-02-16T08:51:54;8.15;;;4.47;;
47403;SDS011;33157;51.508;4.288;2024-02-16T08:56:55;12.50;;;3.85;;
47403;SDS011;33157;51.508;4.288;2024-02-16T09:01:55;13.32;;;4.65;;
47403;SDS011;33157;51.508;4.288;2024-02-16T09:06:56;12.20;;;4.30;;
47403;SDS011;33157;51.508;4.288;2024-02-16T09:11:56;12.60;;;4.15;;
47403;SDS011;33157;51.508;4.288;2024-02-16T09:16:57;12.10;;;5.20;;
47403;SDS011;33157;51.508;4.288;2024-02-16T09:21:59;11.00;;;4.43;;
47403;SDS011;33157;51.508;4.288;2024-02-16T09:27:02;11.07;;;4.32;;
47403;SDS011;33157;51.508;4.288;2024-02-16T09:32:05;11.85;;;4.88;;
47403;SDS011;33157;51.508;4.288;2024-02-16T09:37:05;13.70;;;6.05;;
47403;SDS011;33157;51.508;4.288;2024-02-16T09:42:06;13.30;;;5.63;;
47403;SDS011;33157;51.508;4.288;2024-02-16T09:47:06;15.43;;;6.70;;
47403;SDS011;33157;51.508;4.288;2024-02-16T09:52:10;17.00;;;5.75;;
47403;SDS011;33157;51.508;4.288;2024-02-16T09:57:16;12.63;;;5.32;;
47403;SDS011;33157;51.508;4.288;2024-02-16T10:02:17;16.55;;;6.93;;
47403;SDS011;33157;51.508;4.288;2024-02-16T10:07:18;17.90;;;6.45;;
47403;SDS011;33157;51.508;4.288;2024-02-16T10:12:18;11.77;;;6.07;;
47403;SDS011;33157;51.508;4.288;2024-02-16T10:17:19;12.65;;;7.30;;
47403;SDS011;33157;51.508;4.288;2024-02-16T10:22:20;15.93;;;6.57;;
47403;SDS011;33157;51.508;4.288;2024-02-16T10:27:22;19.15;;;7.63;;
47403;SDS011;33157;51.508;4.288;2024-02-16T10:32:23;13.95;;;7.78;;
47403;SDS011;33157;51.508;4.288;2024-02-16T10:37:24;20.60;;;8.65;;
47403;SDS011;33157;51.508;4.288;2024-02-16T10:42:25;17.17;;;8.45;;
47403;SDS011;33157;51.508;4.288;2024-02-16T10:47:27;24.55;;;9.23;;
47403;SDS011;33157;51.508;4.288;2024-02-16T10:52:28;20.00;;;8.38;;
47403;SDS011;33157;51.508;4.288;2024-02-16T10:57:29;14.63;;;7.95;;
47403;SDS011;33157;51.508;4.288;2024-02-16T11:02:31;19.63;;;8.63;;
47403;SDS011;33157;51.508;4.288;2024-02-16T11:07:31;20.25;;;9.20;;
47403;SDS011;33157;51.508;4.288;2024-02-16T11:12:35;16.98;;;8.63;;
47403;SDS011;33157;51.508;4.288;2024-02-16T11:17:35;14.52;;;8.65;;
47403;SDS011;33157;51.508;4.288;2024-02-16T11:22:36;24.23;;;11.30;;
47403;SDS011;33157;51.508;4.288;2024-02-16T11:27:38;26.45;;;14.57;;
47403;SDS011;33157;51.508;4.288;2024-02-16T11:32:41;25.83;;;14.63;;
47403;SDS011;33157;51.508;4.288;2024-02-16T11:37:43;27.13;;;13.20;;
47403;SDS011;33157;51.508;4.288;2024-02-16T11:47:47;26.40;;;12.52;;
47403;SDS011;33157;51.508;4.288;2024-02-16T11:52:47;19.80;;;11.13;;
47403;SDS011;33157;51.508;4.288;2024-02-16T11:57:48;18.55;;;10.70;;
47403;SDS011;33157;51.508;4.288;2024-02-16T12:02:58;23.67;;;11.27;;
47403;SDS011;33157;51.508;4.288;2024-02-16T12:08:00;19.27;;;8.80;;
47403;SDS011;33157;51.508;4.288;2024-02-16T12:13:00;16.98;;;8.93;;
47403;SDS011;33157;51.508;4.288;2024-02-16T12:18:04;14.73;;;8.55;;
47403;SDS011;33157;51.508;4.288;2024-02-16T12:23:11;14.20;;;7.57;;
47403;SDS011;33157;51.508;4.288;2024-02-16T12:28:12;12.93;;;7.65;;
47403;SDS011;33157;51.508;4.288;2024-02-16T12:33:13;11.45;;;6.70;;
47403;SDS011;33157;51.508;4.288;2024-02-16T12:38:14;9.38;;;6.20;;
47403;SDS011;33157;51.508;4.288;2024-02-16T12:43:17;10.13;;;5.68;;
47403;SDS011;33157;51.508;4.288;2024-02-16T12:48:19;8.38;;;5.40;;
47403;SDS011;33157;51.508;4.288;2024-02-16T12:53:20;10.45;;;5.25;;
47403;SDS011;33157;51.508;4.288;2024-02-16T12:58:24;8.88;;;5.22;;
47403;SDS011;33157;51.508;4.288;2024-02-16T13:03:25;7.97;;;5.40;;
47403;SDS011;33157;51.508;4.288;2024-02-16T13:08:25;8.15;;;5.22;;
47403;SDS011;33157;51.508;4.288;2024-02-16T13:13:25;10.07;;;4.60;;
47403;SDS011;33157;51.508;4.288;2024-02-16T13:18:26;7.15;;;4.25;;
47403;SDS011;33157;51.508;4.288;2024-02-16T13:23:26;8.00;;;3.88;;
47403;SDS011;33157;51.508;4.288;2024-02-16T13:33:29;7.43;;;3.60;;
47403;SDS011;33157;51.508;4.288;2024-02-16T13:38:29;6.40;;;3.28;;
47403;SDS011;33157;51.508;4.288;2024-02-16T13:43:30;7.85;;;3.90;;
47403;SDS011;33157;51.508;4.288;2024-02-16T13:48:31;6.07;;;2.97;;
47403;SDS011;33157;51.508;4.288;2024-02-16T13:53:32;3.92;;;2.70;;
47403;SDS011;33157;51.508;4.288;2024-02-16T13:58:32;4.55;;;2.97;;
47403;SDS011;33157;51.508;4.288;2024-02-16T14:03:34;5.47;;;2.55;;
47403;SDS011;33157;51.508;4.288;2024-02-16T14:08:36;3.65;;;2.08;;
47403;SDS011;33157;51.508;4.288;2024-02-16T14:13:37;4.97;;;2.30;;
47403;SDS011;33157;51.508;4.288;2024-02-16T14:18:37;6.90;;;3.00;;
47403;SDS011;33157;51.508;4.288;2024-02-16T14:23:37;7.57;;;2.80;;
47403;SDS011;33157;51.508;4.288;2024-02-16T14:28:38;6.18;;;3.60;;
47403;SDS011;33157;51.508;4.288;2024-02-16T14:33:38;7.20;;;3.80;;
47403;SDS011;33157;51.508;4.288;2024-02-16T14:38:39;10.45;;;3.70;;
47403;SDS011;33157;51.508;4.288;2024-02-16T14:43:39;8.50;;;3.38;;
47403;SDS011;33157;51.508;4.288;2024-02-16T14:48:39;8.27;;;2.90;;
47403;SDS011;33157;51.508;4.288;2024-02-16T14:53:40;7.73;;;3.17;;
47403;SDS011;33157;51.508;4.288;2024-02-16T14:58:41;7.18;;;2.85;;
47403;SDS011;33157;51.508;4.288;2024-02-16T15:03:42;9.57;;;3.15;;
47403;SDS011;33157;51.508;4.288;2024-02-16T15:08:43;9.30;;;3.13;;
47403;SDS011;33157;51.508;4.288;2024-02-16T15:13:43;7.13;;;3.42;;
47403;SDS011;33157;51.508;4.288;2024-02-16T15:18:44;7.03;;;3.13;;
47403;SDS011;33157;51.508;4.288;2024-02-16T15:23:44;10.00;;;2.90;;
47403;SDS011;33157;51.508;4.288;2024-02-16T15:28:44;9.35;;;3.28;;
47403;SDS011;33157;51.508;4.288;2024-02-16T15:33:45;9.32;;;2.58;;
47403;SDS011;33157;51.508;4.288;2024-02-16T15:38:45;11.40;;;3.20;;
47403;SDS011;33157;51.508;4.288;2024-02-16T15:43:45;8.43;;;3.00;;
47403;SDS011;33157;51.508;4.288;2024-02-16T15:48:46;12.32;;;3.55;;
47403;SDS011;33157;51.508;4.288;2024-02-16T15:53:48;8.77;;;2.80;;
47403;SDS011;33157;51.508;4.288;2024-02-16T15:58:49;6.93;;;2.17;;
47403;SDS011;33157;51.508;4.288;2024-02-16T16:03:51;8.10;;;2.25;;
47403;SDS011;33157;51.508;4.288;2024-02-16T16:08:52;10.90;;;2.58;;
47403;SDS011;33157;51.508;4.288;2024-02-16T16:18:54;5.18;;;1.50;;
47403;SDS011;33157;51.508;4.288;2024-02-16T16:23:57;9.15;;;2.03;;
47403;SDS011;33157;51.508;4.288;2024-02-16T16:28:58;4.78;;;1.85;;
47403;SDS011;33157;51.508;4.288;2024-02-16T16:33:58;6.88;;;1.90;;
47403;SDS011;33157;51.508;4.288;2024-02-16T16:38:58;6.53;;;1.98;;
47403;SDS011;33157;51.508;4.288;2024-02-16T16:43:59;7.05;;;3.03;;
47403;SDS011;33157;51.508;4.288;2024-02-16T16:48:59;8.82;;;2.95;;
47403;SDS011;33157;51.508;4.288;2024-02-16T16:54:00;10.70;;;2.40;;
47403;SDS011;33157;51.508;4.288;2024-02-16T16:59:01;4.82;;;2.00;;
47403;SDS011;33157;51.508;4.288;2024-02-16T17:04:04;9.45;;;2.67;;
47403;SDS011;33157;51.508;4.288;2024-02-16T17:09:04;11.67;;;3.07;;
47403;SDS011;33157;51.508;4.288;2024-02-16T17:14:05;5.57;;;2.20;;
47403;SDS011;33157;51.508;4.288;2024-02-16T17:19:07;9.32;;;2.53;;
47403;SDS011;33157;51.508;4.288;2024-02-16T17:24:08;13.68;;;4.13;;
47403;SDS011;33157;51.508;4.288;2024-02-16T17:29:08;13.55;;;4.32;;
47403;SDS011;33157;51.508;4.288;2024-02-16T17:34:09;12.82;;;3.83;;
47403;SDS011;33157;51.508;4.288;2024-02-16T17:39:09;13.70;;;3.50;;
47403;SDS011;33157;51.508;4.288;2024-02-16T17:44:09;8.55;;;2.83;;
47403;SDS011;33157;51.508;4.288;2024-02-16T17:49:10;11.55;;;3.50;;
47403;SDS011;33157;51.508;4.288;2024-02-16T17:54:12;13.73;;;3.80;;
47403;SDS011;33157;51.508;4.288;2024-02-16T17:59:12;13.35;;;3.65;;
47403;SDS011;33157;51.508;4.288;2024-02-16T18:04:12;10.37;;;3.70;;
47403;SDS011;33157;51.508;4.288;2024-02-16T18:09:13;15.65;;;5.40;;
47403;SDS011;33157;51.508;4.288;2024-02-16T18:14:13;15.57;;;5.28;;
47403;SDS011;33157;51.508;4.288;2024-02-16T18:19:17;17.52;;;4.63;;
47403;SDS011;33157;51.508;4.288;2024-02-16T18:24:17;12.43;;;5.38;;
47403;SDS011;33157;51.508;4.288;2024-02-16T18:29:18;20.90;;;6.38;;
47403;SDS011;33157;51.508;4.288;2024-02-16T18:34:18;12.13;;;4.60;;
47403;SDS011;33157;51.508;4.288;2024-02-16T18:39:19;16.55;;;4.88;;
47403;SDS011;33157;51.508;4.288;2024-02-16T18:44:19;13.15;;;4.72;;
47403;SDS011;33157;51.508;4.288;2024-02-16T18:49:20;16.75;;;5.45;;
47403;SDS011;33157;51.508;4.288;2024-02-16T18:54:20;13.30;;;5.60;;
47403;SDS011;33157;51.508;4.288;2024-02-16T18:59:21;18.83;;;6.10;;
47403;SDS011;33157;51.508;4.288;2024-02-16T19:04:21;14.57;;;5.55;;
47403;SDS011;33157;51.508;4.288;2024-02-16T19:09:22;19.65;;;5.63;;
47403;SDS011;33157;51.508;4.288;2024-02-16T19:14:22;14.50;;;6.13;;
47403;SDS011;33157;51.508;4.288;2024-02-16T19:19:25;15.75;;;6.60;;
47403;SDS011;33157;51.508;4.288;2024-02-16T19:24:27;17.50;;;7.00;;
47403;SDS011;33157;51.508;4.288;2024-02-16T19:29:28;17.83;;;6.03;;
47403;SDS011;33157;51.508;4.288;2024-02-16T19:34:28;17.90;;;6.75;;
47403;SDS011;33157;51.508;4.288;2024-02-16T19:39:29;14.52;;;6.18;;
47403;SDS011;33157;51.508;4.288;2024-02-16T19:44:29;16.92;;;6.40;;
47403;SDS011;33157;51.508;4.288;2024-02-16T19:49:32;17.40;;;6.10;;
47403;SDS011;33157;51.508;4.288;2024-02-16T19:54:33;16.08;;;5.70;;
47403;SDS011;33157;51.508;4.288;2024-02-16T19:59:33;14.75;;;5.55;;
47403;SDS011;33157;51.508;4.288;2024-02-16T20:04:34;15.15;;;5.15;;
47403;SDS011;33157;51.508;4.288;2024-02-16T20:09:34;22.88;;;6.70;;
47403;SDS011;33157;51.508;4.288;2024-02-16T20:14:35;12.20;;;4.93;;
47403;SDS011;33157;51.508;4.288;2024-02-16T20:19:35;18.05;;;5.43;;
47403;SDS011;33157;51.508;4.288;2024-02-16T20:24:36;11.25;;;4.80;;
47403;SDS011;33157;51.508;4.288;2024-02-16T20:29:36;14.35;;;5.35;;
47403;SDS011;33157;51.508;4.288;2024-02-16T20:34:37;16.13;;;5.53;;
47403;SDS011;33157;51.508;4.288;2024-02-16T20:39:38;22.33;;;5.73;;
47403;SDS011;33157;51.508;4.288;2024-02-16T20:44:39;15.00;;;5.22;;
47403;SDS011;33157;51.508;4.288;2024-02-16T20:49:39;18.48;;;5.80;;
47403;SDS011;33157;51.508;4.288;2024-02-16T20:54:39;16.08;;;5.82;;
47403;SDS011;33157;51.508;4.288;2024-02-16T20:59:40;16.42;;;5.90;;
47403;SDS011;33157;51.508;4.288;2024-02-16T21:04:40;18.98;;;5.78;;
47403;SDS011;33157;51.508;4.288;2024-02-16T21:09:41;14.02;;;5.35;;
47403;SDS011;33157;51.508;4.288;2024-02-16T21:14:42;12.10;;;5.43;;
47403;SDS011;33157;51.508;4.288;2024-02-16T21:19:42;18.85;;;5.70;;
47403;SDS011;33157;51.508;4.288;2024-02-16T21:24:43;24.70;;;7.00;;
47403;SDS011;33157;51.508;4.288;2024-02-16T21:29:43;17.45;;;6.82;;
47403;SDS011;33157;51.508;4.288;2024-02-16T21:34:45;15.57;;;5.93;;
47403;SDS011;33157;51.508;4.288;2024-02-16T21:39:46;18.85;;;6.47;;
47403;SDS011;33157;51.508;4.288;2024-02-16T21:44:46;20.98;;;6.10;;
47403;SDS011;33157;51.508;4.288;2024-02-16T21:49:48;19.63;;;7.00;;
47403;SDS011;33157;51.508;4.288;2024-02-16T21:54:50;22.87;;;7.20;;
47403;SDS011;33157;51.508;4.288;2024-02-16T21:59:50;27.17;;;6.30;;
47403;SDS011;33157;51.508;4.288;2024-02-16T22:04:53;20.48;;;5.82;;
47403;SDS011;33157;51.508;4.288;2024-02-16T22:09:54;16.00;;;6.22;;
47403;SDS011;33157;51.508;4.288;2024-02-16T22:14:54;21.55;;;5.55;;
47403;SDS011;33157;51.508;4.288;2024-02-16T22:19:54;22.83;;;5.82;;
47403;SDS011;33157;51.508;4.288;2024-02-16T22:24:56;15.67;;;4.57;;
47403;SDS011;33157;51.508;4.288;2024-02-16T22:29:57;20.55;;;5.25;;
47403;SDS011;33157;51.508;4.288;2024-02-16T22:34:57;24.40;;;6.15;;
47403;SDS011;33157;51.508;4.288;2024-02-16T22:39:58;23.80;;;5.70;;
47403;SDS011;33157;51.508;4.288;2024-02-16T22:44:58;19.15;;;5.70;;
47403;SDS011;33157;51.508;4.288;2024-02-16T22:49:58;18.70;;;5.35;;
47403;SDS011;33157;51.508;4.288;2024-02-16T22:54:59;17.45;;;5.72;;
47403;SDS011;33157;51.508;4.288;2024-02-16T22:59:59;18.27;;;6.10;;
47403;SDS011;33157;51.508;4.288;2024-02-16T23:05:00;18.75;;;5.43;;
47403;SDS011;33157;51.508;4.288;2024-02-16T23:10:00;17.98;;;5.97;;
47403;SDS011;33157;51.508;4.288;2024-02-16T23:15:04;19.52;;;5.70;;
47403;SDS011;33157;51.508;4.288;2024-02-16T23:20:05;17.60;;;4.97;;
47403;SDS011;33157;51.508;4.288;2024-02-16T23:25:06;19.45;;;5.15;;
47403;SDS011;33157;51.508;4.288;2024-02-16T23:30:07;16.67;;;4.97;;
47403;SDS011;33157;51.508;4.288;2024-02-16T23:35:08;18.55;;;5.43;;
47403;SDS011;33157;51.508;4.288;2024-02-16T23:40:09;17.27;;;6.32;;
47403;SDS011;33157;51.508;4.288;2024-02-16T23:45:11;15.43;;;5.10;;
47403;SDS011;33157;51.508;4.288;2024-02-16T23:50:13;18.67;;;4.45;;
47403;SDS011;33157;51.508;4.288;2024-02-16T23:55:14;13.70;;;3.95;;
